Time;durP1;ratioP1;P1;durP2;ratioP2;P2;SDS_P1;SDS_P2;PMS_P1;PMS_P2;Temp;Humidity;BMP_temperature;BMP_pressure;BME280_temperature;BME280_humidity;BME280_pressure;Samples;Min_cycle;Max_cycle;Signal;HPM_P1;HPM_P2
2022/11/08 00:04:35;;;;;;;11.90;8.38;;;;;;;;;;10295196;28;20076;-60
2022/11/08 00:14:49;;;;;;;10.85;9.25;;;;;;;;;;10281218;28;20702;-60
2022/11/08 00:19:49;;;;;;;17.65;9.52;;;;;;;;;;10295095;28;20072;-60
2022/11/08 00:24:47;;;;;;;14.68;9.48;;;;;;;;;;10286450;28;20088;-60
2022/11/08 00:29:45;;;;;;;14.98;8.98;;;;;;;;;;10316127;28;20523;-60
2022/11/08 00:34:44;;;;;;;11.98;8.05;;;;;;;;;;10294201;28;20051;-61
2022/11/08 00:39:43;;;;;;;10.82;9.68;;;;;;;;;;10279483;28;20479;-60
2022/11/08 00:44:42;;;;;;;9.85;8.70;;;;;;;;;;10293609;28;20061;-60
2022/11/08 00:49:40;;;;;;;10.02;8.82;;;;;;;;;;10285790;28;20072;-60
2022/11/08 00:54:38;;;;;;;13.88;9.20;;;;;;;;;;10286274;28;20037;-61
2022/11/08 00:59:38;;;;;;;11.45;9.10;;;;;;;;;;10293443;28;20513;-60
2022/11/08 01:04:36;;;;;;;13.07;9.15;;;;;;;;;;10293792;28;20076;-60
2022/11/08 01:09:34;;;;;;;11.50;8.75;;;;;;;;;;10279940;28;20497;-60
2022/11/08 01:14:32;;;;;;;14.27;9.30;;;;;;;;;;10284408;28;20069;-59
2022/11/08 01:19:32;;;;;;;14.35;9.23;;;;;;;;;;10285595;28;20084;-59
2022/11/08 01:24:30;;;;;;;10.68;8.52;;;;;;;;;;10286254;28;20513;-60
2022/11/08 01:29:28;;;;;;;16.13;9.70;;;;;;;;;;10285190;28;20061;-60
2022/11/08 01:34:27;;;;;;;11.07;9.40;;;;;;;;;;10284758;28;20083;-60
2022/11/08 01:39:31;;;;;;;10.60;8.75;;;;;;;;;;10285542;28;20066;-58
2022/11/08 01:44:29;;;;;;;12.43;9.18;;;;;;;;;;10285687;28;20520;-61
2022/11/08 01:49:33;;;;;;;10.48;9.30;;;;;;;;;;10284826;28;20175;-59
2022/11/08 01:54:39;;;;;;;10.38;9.27;;;;;;;;;;10284341;28;20532;-61
2022/11/08 01:59:39;;;;;;;9.70;8.65;;;;;;;;;;10284748;28;20687;-59
2022/11/08 02:04:38;;;;;;;11.32;9.65;;;;;;;;;;10283886;28;20156;-61
2022/11/08 02:09:38;;;;;;;15.48;9.50;;;;;;;;;;10284294;28;20072;-60
2022/11/08 02:14:37;;;;;;;16.27;9.60;;;;;;;;;;10284682;28;20065;-61
2022/11/08 02:19:38;;;;;;;11.30;9.45;;;;;;;;;;10290916;28;20508;-60
2022/11/08 02:24:37;;;;;;;11.82;9.07;;;;;;;;;;10289866;28;20091;-60
2022/11/08 02:29:36;;;;;;;11.90;9.90;;;;;;;;;;10276607;28;20497;-59
2022/11/08 02:34:36;;;;;;;10.35;8.90;;;;;;;;;;10283029;28;20049;-60
2022/11/08 02:39:35;;;;;;;12.32;9.55;;;;;;;;;;10283336;28;20484;-58
2022/11/08 02:44:35;;;;;;;11.07;9.10;;;;;;;;;;10282871;28;20064;-60
2022/11/08 02:49:33;;;;;;;11.65;9.70;;;;;;;;;;10282889;28;20064;-60
2022/11/08 02:54:31;;;;;;;12.25;9.43;;;;;;;;;;10295619;28;20441;-59
2022/11/08 02:59:29;;;;;;;20.38;10.60;;;;;;;;;;10282557;28;20069;-62
2022/11/08 03:04:29;;;;;;;11.27;9.43;;;;;;;;;;10288671;28;20433;-60
2022/11/08 03:09:27;;;;;;;14.07;9.85;;;;;;;;;;10302895;28;20523;-60
2022/11/08 03:14:25;;;;;;;16.60;11.68;;;;;;;;;;10274325;28;20107;-59
2022/11/08 03:19:23;;;;;;;13.68;9.63;;;;;;;;;;10289112;28;20078;-59
2022/11/08 03:24:23;;;;;;;10.43;9.43;;;;;;;;;;10288468;28;20493;-60
2022/11/08 03:29:21;;;;;;;14.07;9.60;;;;;;;;;;10275440;28;20056;-59
2022/11/08 03:34:19;;;;;;;12.57;10.68;;;;;;;;;;10282511;28;20069;-59
2022/11/08 03:39:17;;;;;;;11.90;9.93;;;;;;;;;;10287655;28;20072;-60
2022/11/08 03:44:17;;;;;;;13.07;11.68;;;;;;;;;;10288807;28;20429;-59
2022/11/08 03:49:15;;;;;;;10.77;9.50;;;;;;;;;;10275390;28;20080;-60
2022/11/08 03:54:13;;;;;;;12.60;9.48;;;;;;;;;;10282588;28;20049;-60
2022/11/08 03:59:11;;;;;;;11.88;10.13;;;;;;;;;;10280784;28;20087;-59
2022/11/08 04:04:11;;;;;;;12.40;11.05;;;;;;;;;;10281215;28;20080;-60
2022/11/08 04:09:09;;;;;;;13.13;10.68;;;;;;;;;;10281861;28;20072;-60
2022/11/08 04:24:40;;;;;;;16.92;10.98;;;;;;;;;;10279714;28;20076;-60
2022/11/08 04:29:39;;;;;;;11.27;9.65;;;;;;;;;;10294789;28;20048;-61
2022/11/08 04:34:38;;;;;;;13.27;10.63;;;;;;;;;;10282063;28;20084;-60
2022/11/08 04:39:36;;;;;;;11.82;10.07;;;;;;;;;;10285984;28;20083;-59
2022/11/08 04:44:35;;;;;;;13.35;9.70;;;;;;;;;;10293597;28;20083;-60
2022/11/08 04:49:33;;;;;;;12.68;11.35;;;;;;;;;;10284618;28;20716;-60
2022/11/08 04:54:32;;;;;;;12.27;10.35;;;;;;;;;;10291794;28;20077;-60
2022/11/08 04:59:31;;;;;;;14.20;11.75;;;;;;;;;;10279554;28;20080;-61
2022/11/08 05:04:29;;;;;;;12.45;10.82;;;;;;;;;;10294172;28;20667;-59
2022/11/08 05:09:27;;;;;;;15.65;11.57;;;;;;;;;;10289589;28;20064;-59
2022/11/08 05:14:26;;;;;;;15.48;12.45;;;;;;;;;;10297584;28;20068;-60
2022/11/08 05:24:37;;;;;;;13.95;10.50;;;;;;;;;;10281253;28;20087;-60
2022/11/08 05:29:36;;;;;;;13.80;10.40;;;;;;;;;;10271236;28;20071;-60
2022/11/08 05:34:39;;;;;;;14.18;10.27;;;;;;;;;;10288747;28;20080;-60
2022/11/08 05:39:37;;;;;;;16.30;10.90;;;;;;;;;;10279869;28;20069;-59
2022/11/08 05:44:37;;;;;;;12.77;9.48;;;;;;;;;;10277290;28;20076;-59
2022/11/08 05:49:35;;;;;;;12.40;11.13;;;;;;;;;;10281666;28;20073;-60
2022/11/08 05:54:34;;;;;;;13.13;10.18;;;;;;;;;;10303893;28;20082;-60
2022/11/08 05:59:32;;;;;;;13.38;9.85;;;;;;;;;;10283869;28;20076;-60
2022/11/08 06:04:31;;;;;;;11.07;9.98;;;;;;;;;;10293863;28;20087;-60
2022/11/08 06:09:30;;;;;;;12.48;9.13;;;;;;;;;;10288128;28;20477;-61
2022/11/08 06:14:28;;;;;;;12.45;10.25;;;;;;;;;;10283624;28;20060;-60
2022/11/08 06:19:26;;;;;;;14.70;10.82;;;;;;;;;;10282398;28;20087;-60
2022/11/08 06:24:26;;;;;;;14.23;10.52;;;;;;;;;;10283325;28;20078;-60
2022/11/08 06:29:24;;;;;;;14.50;10.02;;;;;;;;;;10280263;28;20068;-60
2022/11/08 06:34:22;;;;;;;15.55;11.18;;;;;;;;;;10281769;28;20465;-59
2022/11/08 06:39:21;;;;;;;12.48;9.85;;;;;;;;;;10287667;28;20068;-60
2022/11/08 06:44:20;;;;;;;15.90;11.60;;;;;;;;;;10289328;28;20075;-60
2022/11/08 06:49:19;;;;;;;12.70;10.25;;;;;;;;;;10281275;28;20080;-60
2022/11/08 06:54:17;;;;;;;23.85;18.27;;;;;;;;;;10280676;28;20104;-60
2022/11/08 06:59:19;;;;;;;87.68;58.08;;;;;;;;;;10282178;28;20072;-61
2022/11/08 07:04:18;;;;;;;15.45;12.30;;;;;;;;;;10281514;28;20076;-60
2022/11/08 07:09:17;;;;;;;28.65;21.73;;;;;;;;;;10281400;28;20071;-60
2022/11/08 07:14:15;;;;;;;52.08;30.85;;;;;;;;;;10289652;28;20068;-60
2022/11/08 07:19:13;;;;;;;91.32;55.17;;;;;;;;;;10285165;28;20603;-60
2022/11/08 07:24:13;;;;;;;47.17;32.38;;;;;;;;;;10294471;28;20064;-60
2022/11/08 07:29:11;;;;;;;40.13;23.40;;;;;;;;;;10288286;28;20095;-60
2022/11/08 07:34:13;;;;;;;33.78;25.10;;;;;;;;;;10293228;28;20525;-60
2022/11/08 07:39:12;;;;;;;38.55;23.08;;;;;;;;;;10279248;28;20465;-61
2022/11/08 07:44:11;;;;;;;41.97;24.20;;;;;;;;;;10281361;28;20085;-59
2022/11/08 07:49:09;;;;;;;17.75;12.23;;;;;;;;;;10281083;28;20092;-59
2022/11/08 07:54:07;;;;;;;16.55;12.48;;;;;;;;;;10284598;28;20091;-59
2022/11/08 07:59:07;;;;;;;21.75;11.98;;;;;;;;;;10283864;28;21310;-60
2022/11/08 08:04:05;;;;;;;28.15;14.55;;;;;;;;;;10284478;28;20073;-61
2022/11/08 08:09:04;;;;;;;17.63;11.93;;;;;;;;;;10289911;28;20510;-60
2022/11/08 08:14:02;;;;;;;18.10;11.43;;;;;;;;;;10286420;28;20492;-60
2022/11/08 08:19:02;;;;;;;20.25;12.25;;;;;;;;;;10289164;28;20075;-60
2022/11/08 08:24:00;;;;;;;22.75;12.90;;;;;;;;;;10290539;28;20072;-59
2022/11/08 08:28:58;;;;;;;20.98;12.30;;;;;;;;;;10285324;28;20048;-59
2022/11/08 08:33:57;;;;;;;15.80;12.77;;;;;;;;;;10285344;28;20107;-60
2022/11/08 08:38:56;;;;;;;15.57;12.02;;;;;;;;;;10286836;28;20084;-59
2022/11/08 08:43:55;;;;;;;20.88;14.50;;;;;;;;;;10281548;28;20083;-60
2022/11/08 08:48:53;;;;;;;15.93;10.95;;;;;;;;;;10286636;28;20425;-59
2022/11/08 08:53:51;;;;;;;16.75;11.73;;;;;;;;;;10303359;28;20072;-59
2022/11/08 08:58:51;;;;;;;17.80;11.45;;;;;;;;;;10286950;28;20112;-59
2022/11/08 09:04:09;;;;;;;15.35;11.77;;;;;;;;;;10285575;28;20103;-59
2022/11/08 09:09:07;;;;;;;11.30;9.10;;;;;;;;;;10287801;28;20095;-60
2022/11/08 09:14:07;;;;;;;16.23;9.93;;;;;;;;;;10292261;28;20077;-60
2022/11/08 09:19:05;;;;;;;17.75;10.95;;;;;;;;;;10277052;28;20077;-58
2022/11/08 09:24:04;;;;;;;15.13;9.43;;;;;;;;;;10279916;28;20064;-60
2022/11/08 09:29:02;;;;;;;14.55;10.15;;;;;;;;;;10276947;28;20110;-59
2022/11/08 09:34:02;;;;;;;17.00;9.35;;;;;;;;;;10282628;28;20126;-60
2022/11/08 09:39:05;;;;;;;16.55;10.07;;;;;;;;;;10296548;28;20076;-61
2022/11/08 09:44:11;;;;;;;13.50;9.05;;;;;;;;;;10286609;28;20536;-60
2022/11/08 09:49:13;;;;;;;12.75;9.90;;;;;;;;;;10283819;28;20528;-62
2022/11/08 09:54:15;;;;;;;13.50;10.40;;;;;;;;;;10285314;28;20073;-60
2022/11/08 09:59:25;;;;;;;14.85;10.18;;;;;;;;;;10283416;28;20087;-60
2022/11/08 10:04:26;;;;;;;15.15;10.68;;;;;;;;;;10280419;28;20083;-59
2022/11/08 10:09:33;;;;;;;19.08;10.05;;;;;;;;;;10289375;28;20155;-60
2022/11/08 10:14:42;;;;;;;13.88;10.38;;;;;;;;;;10314215;28;20067;-59
2022/11/08 10:19:57;;;;;;;15.60;10.35;;;;;;;;;;10315177;28;20091;-59
2022/11/08 10:25:05;;;;;;;14.35;10.25;;;;;;;;;;10296007;28;20091;-60
2022/11/08 10:30:06;;;;;;;15.02;10.52;;;;;;;;;;10288685;28;20068;-60
2022/11/08 10:35:16;;;;;;;18.25;10.32;;;;;;;;;;10284717;28;20508;-60
2022/11/08 10:40:18;;;;;;;16.67;11.15;;;;;;;;;;10277234;28;20085;-59
2022/11/08 10:45:17;;;;;;;18.45;11.65;;;;;;;;;;10289717;28;20092;-61
2022/11/08 10:50:17;;;;;;;12.13;9.75;;;;;;;;;;10296342;28;20441;-60
2022/11/08 10:55:26;;;;;;;15.82;10.85;;;;;;;;;;10273624;28;20528;-59
2022/11/08 11:00:26;;;;;;;11.68;9.60;;;;;;;;;;10283657;28;20501;-60
2022/11/08 11:05:31;;;;;;;15.07;8.85;;;;;;;;;;10285275;28;20107;-60
2022/11/08 11:10:31;;;;;;;15.35;10.48;;;;;;;;;;10283310;28;20073;-60
2022/11/08 11:15:36;;;;;;;18.77;10.57;;;;;;;;;;10273270;28;20088;-60
2022/11/08 11:20:35;;;;;;;17.35;10.93;;;;;;;;;;10272150;28;20052;-60
2022/11/08 11:25:34;;;;;;;14.82;10.40;;;;;;;;;;10278745;28;20077;-60
2022/11/08 11:30:32;;;;;;;12.77;9.05;;;;;;;;;;10281861;28;20060;-59
2022/11/08 11:35:37;;;;;;;14.77;10.10;;;;;;;;;;10287911;28;20095;-60
2022/11/08 11:40:38;;;;;;;13.88;8.60;;;;;;;;;;10288946;28;20088;-60
2022/11/08 11:45:40;;;;;;;14.25;9.60;;;;;;;;;;10286775;28;20077;-60
2022/11/08 11:50:41;;;;;;;15.48;9.35;;;;;;;;;;10287670;28;20513;-60
2022/11/08 11:55:44;;;;;;;11.07;9.57;;;;;;;;;;10282502;28;20095;-61
2022/11/08 12:00:44;;;;;;;14.93;9.55;;;;;;;;;;10283630;28;20095;-59
2022/11/08 12:05:51;;;;;;;13.80;10.05;;;;;;;;;;10311284;28;20068;-59
2022/11/08 12:10:54;;;;;;;10.68;9.55;;;;;;;;;;10294598;28;20033;-59
2022/11/08 12:15:57;;;;;;;11.48;9.82;;;;;;;;;;10292866;28;20068;-60
2022/11/08 12:21:03;;;;;;;16.88;10.23;;;;;;;;;;10275867;28;20103;-59
2022/11/08 12:26:04;;;;;;;11.98;9.30;;;;;;;;;;10283154;28;20091;-59
2022/11/08 12:31:08;;;;;;;19.15;9.15;;;;;;;;;;10285611;28;20072;-59
2022/11/08 12:36:13;;;;;;;17.43;8.67;;;;;;;;;;10287586;28;20041;-61
2022/11/08 12:41:17;;;;;;;11.75;9.98;;;;;;;;;;10287708;28;20076;-59
2022/11/08 12:46:17;;;;;;;14.20;8.57;;;;;;;;;;10288038;28;20076;-59
2022/11/08 12:51:20;;;;;;;14.68;9.65;;;;;;;;;;10287785;28;20560;-60
2022/11/08 12:56:20;;;;;;;14.05;9.05;;;;;;;;;;10287377;28;20493;-59
2022/11/08 13:01:19;;;;;;;21.60;10.93;;;;;;;;;;10287473;28;20068;-60
2022/11/08 13:06:23;;;;;;;15.50;11.98;;;;;;;;;;10287438;28;20060;-60
2022/11/08 13:11:24;;;;;;;15.52;9.43;;;;;;;;;;10286286;28;20064;-60
2022/11/08 13:16:23;;;;;;;21.55;15.13;;;;;;;;;;10287066;28;20069;-60
2022/11/08 13:21:37;;;;;;;21.52;16.75;;;;;;;;;;10286220;28;20099;-60
2022/11/08 13:26:40;;;;;;;14.13;9.43;;;;;;;;;;10284576;28;20107;-60
2022/11/08 13:31:44;;;;;;;15.50;10.85;;;;;;;;;;10286725;28;20493;-61
2022/11/08 13:36:46;;;;;;;19.63;12.03;;;;;;;;;;10286323;28;20513;-60
2022/11/08 13:47:28;;;;;;;20.02;12.93;;;;;;;;;;10319202;27;20406;-61
2022/11/08 13:52:43;;;;;;;32.72;20.42;;;;;;;;;;10305164;28;20064;-61
2022/11/08 13:57:55;;;;;;;21.50;14.70;;;;;;;;;;10307517;28;20041;-60
2022/11/08 14:02:54;;;;;;;20.80;12.73;;;;;;;;;;10286680;28;20087;-60
2022/11/08 14:08:17;;;;;;;17.98;10.57;;;;;;;;;;10275984;28;20530;-59
2022/11/08 14:13:17;;;;;;;21.90;12.80;;;;;;;;;;10283375;28;20076;-61
2022/11/08 14:18:18;;;;;;;15.25;11.57;;;;;;;;;;10268898;28;20049;-59
2022/11/08 14:23:22;;;;;;;20.65;14.93;;;;;;;;;;10268140;28;20072;-59
2022/11/08 14:28:22;;;;;;;26.27;15.97;;;;;;;;;;10302283;28;20430;-60
2022/11/08 14:33:23;;;;;;;35.03;20.65;;;;;;;;;;10303234;28;20064;-60
2022/11/08 14:38:21;;;;;;;27.63;14.48;;;;;;;;;;10286859;28;20043;-60
2022/11/08 14:43:20;;;;;;;22.67;12.20;;;;;;;;;;10270276;28;20096;-60
2022/11/08 14:48:21;;;;;;;21.05;12.88;;;;;;;;;;10280931;28;20509;-61
2022/11/08 14:53:22;;;;;;;21.67;12.15;;;;;;;;;;10300940;28;20075;-60
2022/11/08 14:58:20;;;;;;;18.33;12.60;;;;;;;;;;10276201;28;20517;-59
2022/11/08 15:03:19;;;;;;;19.50;12.27;;;;;;;;;;10275099;28;20102;-60
2022/11/08 15:08:21;;;;;;;23.70;11.90;;;;;;;;;;10258807;28;20076;-61
2022/11/08 15:13:21;;;;;;;23.85;12.88;;;;;;;;;;10241910;28;20552;-60
2022/11/08 15:18:25;;;;;;;18.35;12.32;;;;;;;;;;10253013;28;20037;-60
2022/11/08 15:23:25;;;;;;;18.03;12.10;;;;;;;;;;10239374;28;20081;-60
2022/11/08 15:28:25;;;;;;;19.15;11.70;;;;;;;;;;10273348;28;20429;-60
2022/11/08 15:33:25;;;;;;;41.97;27.25;;;;;;;;;;10274486;28;20466;-60
2022/11/08 15:38:30;;;;;;;26.75;14.68;;;;;;;;;;10273600;28;20073;-60
2022/11/08 15:43:38;;;;;;;19.35;12.10;;;;;;;;;;10270978;28;20093;-61
2022/11/08 15:48:37;;;;;;;19.08;13.13;;;;;;;;;;10274747;28;20069;-59
2022/11/08 15:53:35;;;;;;;19.40;13.05;;;;;;;;;;10275976;28;20427;-58
2022/11/08 15:58:35;;;;;;;25.90;12.80;;;;;;;;;;10271089;28;20053;-60
2022/11/08 16:03:35;;;;;;;27.48;15.50;;;;;;;;;;10270296;28;20498;-60
2022/11/08 16:08:33;;;;;;;15.27;12.20;;;;;;;;;;10247305;28;20077;-60
2022/11/08 16:13:32;;;;;;;16.50;12.25;;;;;;;;;;10258514;28;20064;-61
2022/11/08 16:18:33;;;;;;;19.90;13.82;;;;;;;;;;10270498;28;20064;-60
2022/11/08 16:23:32;;;;;;;17.00;11.07;;;;;;;;;;10269648;28;20505;-61
2022/11/08 16:28:33;;;;;;;23.33;13.85;;;;;;;;;;10274994;28;20072;-60
2022/11/08 16:33:32;;;;;;;24.33;14.93;;;;;;;;;;10274161;28;20076;-60
2022/11/08 16:38:32;;;;;;;83.38;18.13;;;;;;;;;;10272487;28;20045;-60
2022/11/08 16:43:32;;;;;;;22.42;13.90;;;;;;;;;;10266469;28;20084;-62
2022/11/08 16:48:30;;;;;;;19.83;11.52;;;;;;;;;;10274508;28;20489;-60
2022/11/08 16:53:29;;;;;;;18.80;10.40;;;;;;;;;;10273203;28;20076;-60
2022/11/08 16:58:27;;;;;;;11.13;8.73;;;;;;;;;;10273364;28;20061;-61
2022/11/08 17:03:28;;;;;;;15.10;9.85;;;;;;;;;;10273678;28;20083;-61
2022/11/08 17:08:26;;;;;;;17.48;10.27;;;;;;;;;;10264707;28;20153;-61
2022/11/08 17:13:25;;;;;;;14.25;8.95;;;;;;;;;;10246113;28;20069;-61
2022/11/08 17:18:23;;;;;;;17.60;10.05;;;;;;;;;;10249561;28;20076;-61
2022/11/08 17:23:22;;;;;;;11.68;9.75;;;;;;;;;;10252703;28;20065;-61
2022/11/08 17:28:21;;;;;;;16.08;9.30;;;;;;;;;;10270499;28;20081;-61
2022/11/08 17:33:19;;;;;;;15.15;9.00;;;;;;;;;;10260223;28;20061;-61
2022/11/08 17:38:18;;;;;;;18.05;10.48;;;;;;;;;;10266961;28;20482;-60
2022/11/08 17:43:18;;;;;;;12.65;10.20;;;;;;;;;;10270360;28;20081;-60
2022/11/08 17:48:17;;;;;;;13.73;9.70;;;;;;;;;;10260528;28;20081;-58
2022/11/08 17:53:15;;;;;;;20.33;11.55;;;;;;;;;;10263490;28;20451;-60
2022/11/08 17:58:14;;;;;;;18.83;12.88;;;;;;;;;;10265576;28;20091;-61
2022/11/08 18:03:14;;;;;;;15.10;10.82;;;;;;;;;;10264434;28;20063;-60
2022/11/08 18:08:13;;;;;;;17.95;10.68;;;;;;;;;;10275653;28;20323;-60
2022/11/08 18:13:11;;;;;;;12.85;10.00;;;;;;;;;;10268173;28;20083;-59
2022/11/08 18:18:09;;;;;;;34.75;25.48;;;;;;;;;;10255774;28;20071;-61
2022/11/08 18:23:11;;;;;;;50.30;44.20;;;;;;;;;;10251185;28;20076;-60
2022/11/08 18:28:09;;;;;;;17.08;13.23;;;;;;;;;;10264557;28;20077;-60
2022/11/08 18:33:07;;;;;;;17.45;11.02;;;;;;;;;;10260264;28;20537;-60
2022/11/08 18:38:06;;;;;;;15.40;10.38;;;;;;;;;;10264211;28;20761;-60
2022/11/08 18:43:05;;;;;;;12.90;10.45;;;;;;;;;;10253057;28;20081;-59
2022/11/08 18:48:04;;;;;;;14.55;11.30;;;;;;;;;;10267631;28;20079;-61
2022/11/08 18:53:05;;;;;;;15.85;11.27;;;;;;;;;;10269533;28;20069;-59
2022/11/08 18:58:05;;;;;;;15.77;11.45;;;;;;;;;;10264158;28;20171;-60
2022/11/08 19:03:04;;;;;;;12.77;10.18;;;;;;;;;;10270853;28;20067;-60
2022/11/08 19:08:02;;;;;;;14.50;11.80;;;;;;;;;;10269930;28;20076;-60
2022/11/08 19:13:00;;;;;;;18.95;12.77;;;;;;;;;;10271968;28;20064;-59
2022/11/08 19:18:00;;;;;;;20.77;13.35;;;;;;;;;;10273673;28;20064;-60
2022/11/08 19:22:58;;;;;;;20.80;14.77;;;;;;;;;;10270384;28;20461;-59
2022/11/08 19:27:57;;;;;;;18.75;12.75;;;;;;;;;;10271935;28;20486;-59
2022/11/08 19:32:55;;;;;;;14.02;10.93;;;;;;;;;;10275730;28;20069;-59
2022/11/08 19:37:55;;;;;;;15.70;10.13;;;;;;;;;;10268467;28;20067;-59
2022/11/08 19:42:53;;;;;;;16.88;11.05;;;;;;;;;;10272243;28;20061;-60
2022/11/08 19:47:52;;;;;;;19.83;12.65;;;;;;;;;;10272213;28;20087;-60
2022/11/08 19:52:50;;;;;;;19.40;11.70;;;;;;;;;;10271078;28;20061;-59
2022/11/08 19:57:49;;;;;;;37.05;28.10;;;;;;;;;;10256361;28;20072;-60
2022/11/08 20:02:49;;;;;;;24.88;18.38;;;;;;;;;;10267975;28;20077;-60
2022/11/08 20:07:48;;;;;;;27.25;18.73;;;;;;;;;;10264976;28;20434;-60
2022/11/08 20:12:46;;;;;;;38.55;26.35;;;;;;;;;;10270464;28;20073;-60
2022/11/08 20:17:45;;;;;;;38.60;24.77;;;;;;;;;;10271938;28;20076;-59
2022/11/08 20:22:44;;;;;;;47.38;31.15;;;;;;;;;;10271089;28;20540;-59
2022/11/08 20:27:45;;;;;;;35.55;27.80;;;;;;;;;;10272994;28;20081;-59
2022/11/08 20:32:43;;;;;;;26.42;20.08;;;;;;;;;;10273327;28;20076;-60
2022/11/08 20:37:43;;;;;;;20.58;16.90;;;;;;;;;;10269733;28;20092;-60
2022/11/08 20:42:41;;;;;;;23.45;15.65;;;;;;;;;;10268033;28;20092;-58
2022/11/08 20:47:39;;;;;;;18.85;15.60;;;;;;;;;;10264090;28;20506;-58
2022/11/08 20:52:38;;;;;;;22.08;14.80;;;;;;;;;;10267778;28;20064;-59
2022/11/08 20:57:37;;;;;;;22.73;13.43;;;;;;;;;;10263322;28;20072;-58
2022/11/08 21:02:35;;;;;;;19.88;14.55;;;;;;;;;;10271686;28;20075;-59
2022/11/08 21:07:33;;;;;;;18.90;15.05;;;;;;;;;;10267121;28;20071;-59
2022/11/08 21:12:53;;;;;;;20.17;14.60;;;;;;;;;;10268618;28;20083;-60
2022/11/08 21:17:51;;;;;;;22.60;15.23;;;;;;;;;;10269616;28;20068;-58
2022/11/08 21:22:50;;;;;;;22.63;14.75;;;;;;;;;;10258974;28;20065;-58
2022/11/08 21:27:48;;;;;;;20.20;15.70;;;;;;;;;;10249673;28;20607;-58
2022/11/08 21:32:47;;;;;;;23.13;15.13;;;;;;;;;;10254927;28;20083;-59
2022/11/08 21:37:46;;;;;;;28.95;19.15;;;;;;;;;;10245644;28;20080;-58
2022/11/08 21:42:44;;;;;;;28.33;19.48;;;;;;;;;;10240626;28;20506;-59
2022/11/08 21:47:50;;;;;;;27.85;21.13;;;;;;;;;;10262718;28;20552;-59
2022/11/08 21:52:48;;;;;;;22.20;17.27;;;;;;;;;;10262557;28;20498;-58
2022/11/08 21:57:46;;;;;;;22.40;16.55;;;;;;;;;;10270700;28;20068;-59
2022/11/08 22:02:45;;;;;;;18.02;15.52;;;;;;;;;;10262874;28;20061;-58
2022/11/08 22:07:44;;;;;;;19.58;15.23;;;;;;;;;;10278904;28;20111;-59
2022/11/08 22:12:43;;;;;;;20.75;14.35;;;;;;;;;;10251212;28;20064;-59
2022/11/08 22:17:41;;;;;;;19.92;16.17;;;;;;;;;;10273626;28;20733;-58
2022/11/08 22:23:01;;;;;;;23.98;15.68;;;;;;;;;;10269479;28;20648;-59
2022/11/08 22:28:05;;;;;;;18.27;14.18;;;;;;;;;;10273114;28;21400;-60
2022/11/08 22:33:04;;;;;;;20.73;14.65;;;;;;;;;;10270653;28;20077;-60
2022/11/08 22:38:03;;;;;;;17.33;11.40;;;;;;;;;;10262864;28;20522;-59
2022/11/08 22:43:01;;;;;;;14.27;11.75;;;;;;;;;;10269941;28;20092;-59
2022/11/08 22:48:00;;;;;;;19.52;15.98;;;;;;;;;;10268227;28;20072;-60
2022/11/08 22:52:59;;;;;;;22.45;17.13;;;;;;;;;;10271834;28;20064;-59
2022/11/08 22:57:58;;;;;;;31.63;21.67;;;;;;;;;;10273164;28;20065;-58
2022/11/08 23:02:57;;;;;;;28.98;23.40;;;;;;;;;;10278990;28;20044;-60
2022/11/08 23:07:55;;;;;;;30.17;22.35;;;;;;;;;;10253934;28;20108;-59
2022/11/08 23:18:10;;;;;;;35.90;25.42;;;;;;;;;;10267871;28;20083;-65
2022/11/08 23:33:43;;;;;;;37.85;26.88;;;;;;;;;;10271238;28;20076;-63
2022/11/08 23:38:42;;;;;;;35.20;24.25;;;;;;;;;;10274283;28;20072;-64
2022/11/08 23:48:55;;;;;;;;;;;;;;;;;;10275386;28;20069;-64
2022/11/08 23:53:55;;;;;;;31.48;24.30;;;;;;;;;;10259897;28;19956;-64
2022/11/08 23:58:53;;;;;;;37.85;26.17;;;;;;;;;;10274651;28;20084;-64
